• Join FlightAware (Why Join?)
  • Login
  • US Flag 
Gobble Gobble! 
09:23AM EST


 

Airport Tracker/Info


-or-


 

Live Flight TrackerFlight Track Log ✈ N233PC ✈ 03-May-2013 ✈ MYEF / GGT - KPBI

Flight Track Log - Related Links

Times and Time Zones

All times are in EDT time to prevent confusion due to time zone crossing. See the N233PC flight status page for this flight to view local times or setup timezone preferences in your user account.

Time Position Orientation Groundspeed Altitude Reporting Facility
EDT Latitude Longitude Course Direction KTS MPH feet Rate Location/Type
11:16AM 24.2325 -76.6447 305° West 172 198 7,300  Level Miami Center
11:17AM 24.2556 -76.6811 305° West 160 184 7,600 300 Climbing Miami Center
11:18AM 24.2850 -76.7083 320° Northwest 147 169 7,900 120 Climbing Miami Center
11:19AM 24.3122 -76.7425 311° West 147 169 7,900  Level Miami Center
11:20AM 24.3414 -76.7767 313° West 147 169 7,900  Level Miami Center
11:21AM 24.3706 -76.8131 311° West 152 175 7,900  Level Miami Center
11:22AM 24.3958 -76.8497 307° West 157 181 7,900  Level Miami Center
11:23AM 24.4250 -76.8861 311° West 157 181 7,900  Level Miami Center
11:24AM 24.4564 -76.9206 315° West 157 181 7,900  Level Miami Center
11:25AM 24.4836 -76.9569 309° West 157 181 7,900  Level Miami Center
11:26AM 24.5128 -76.9889 315° West 157 181 7,900  Level Miami Center
11:27AM 24.5400 -77.0256 309° West 157 181 7,900  Level Miami Center
11:28AM 24.5711 -77.0622 313° West 157 181 7,900  Level Miami Center
11:29AM 24.5961 -77.0964 309° West 157 181 7,900  Level Miami Center
11:30AM 24.6275 -77.1331 313° West 157 181 7,900  Level Miami Center
11:31AM 24.6547 -77.1675 311° West 157 181 7,900  Level Miami Center
11:32AM 24.6858 -77.2042 313° West 157 181 7,900  Level Miami Center
11:33AM 24.7150 -77.2431 310° West 162 186 7,900  Level Miami Center
11:34AM 24.7442 -77.2775 313° West 162 186 7,900  Level Miami Center
11:35AM 24.7733 -77.3142 311° West 162 186 7,900  Level Miami Center
11:36AM 24.8006 -77.3533 307° West 162 186 7,900  Level Miami Center
11:37AM 24.8317 -77.3878 315° West 162 186 7,900  Level Miami Center
11:38AM 24.8608 -77.4244 311° West 162 186 7,900  Level Miami Center
11:39AM 24.8900 -77.4614 311° West 162 186 7,900  Level Miami Center
11:40AM 24.9189 -77.4981 311° West 162 186 7,900  Level Miami Center
11:41AM 24.9503 -77.5350 313° West 162 186 7,900  Level Miami Center
11:42AM 24.9792 -77.5719 311° West 162 186 7,900  Level Miami Center
11:43AM 25.0083 -77.6086 311° West 162 186 7,900  Level Miami Center
11:44AM 25.0353 -77.6408 313° West 162 186 7,900  Level Miami Center
11:45AM 25.0644 -77.6778 311° West 162 186 7,900  Level Miami Center
11:46AM 25.0936 -77.7147 311° West 162 186 7,900  Level Miami Center
11:47AM 25.1247 -77.7494 315° West 162 186 7,900  Level Miami Center
11:48AM 25.1517 -77.7864 309° West 157 181 7,900  Level Miami Center
11:49AM 25.1828 -77.8256 311° West 162 186 7,900  Level Miami Center
11:50AM 25.2117 -77.8625 311° West 162 186 7,900  Level Miami Center
11:51AM 25.2428 -77.8997 313° West 162 186 8,000  Climbing Miami Center
11:52AM 25.2697 -77.9344 311° West 162 186 7,900 -60 Descending Miami Center
11:53AM 25.3008 -77.9714 313° West 162 186 7,900  Level Miami Center
11:54AM 25.3297 -78.0083 311° West 162 186 7,900  Level Miami Center
11:55AM 25.3567 -78.0456 309° West 162 186 7,900  Level Miami Center
11:56AM 25.3878 -78.0803 315° West 162 186 7,900  Level Miami Center
11:57AM 25.4144 -78.1197 307° West 162 186 8,000  Climbing Miami Center
11:58AM 25.4436 -78.1522 315° West 157 181 8,000 -60 Level Miami Center
11:59AM 25.4914 -78.1756 336° Northwest 157 181 7,900 -60 Descending Miami Center
12:00PM 25.5014 -78.2242 283° West 157 181 7,900  Level Miami Center
12:01PM 25.5303 -78.2614 311° West 157 181 7,900  Level Miami Center
12:02PM 25.5569 -78.2983 309° West 157 181 7,900  Level Miami Center
12:03PM 25.5861 -78.3311 315° West 157 181 7,900  Level Miami Center
12:04PM 25.6150 -78.3683 311° West 157 181 7,900  Level Miami Center
12:05PM 25.6436 -78.4056 310° West 157 181 7,900  Level Miami Center
12:06PM 25.6747 -78.4428 313° West 157 181 7,900  Level Miami Center
12:07PM 25.7036 -78.4800 311° West 157 181 8,000  Climbing Miami Center
12:08PM 25.7281 -78.5197 304° West 157 181 8,000  Level Miami Center
12:09PM 25.7592 -78.5569 313° West 157 181 8,000  Level Miami Center
12:10PM 25.7878 -78.5944 310° West 157 181 8,000  Level Miami Center
12:11PM 25.8147 -78.6317 309° West 157 181 8,000  Level Miami Center
12:12PM 25.8456 -78.6667 314° West 157 181 8,000  Level Miami Center
12:13PM 25.8744 -78.7042 311° West 157 181 8,000  Level Miami Center
12:14PM 25.9094 -78.7369 320° Northwest 157 181 8,000  Level Miami Center
12:15PM 25.9361 -78.7744 308° West 157 181 8,000  Level Miami Center
12:16PM 25.9606 -78.8142 304° West 157 181 8,000  Level Miami Center
12:17PM 25.9831 -78.8561 301° West 157 181 8,000  Level Miami Center
12:18PM 26.0075 -78.8981 303° West 157 181 8,000  Level Miami Center
12:19PM 26.0361 -78.9472 303° West 157 181 8,000  Level Miami Center
12:20PM 26.0606 -78.9869 304° West 157 181 8,000  Level Miami Center
12:21PM 26.0808 -79.0267 300° West 163 188 8,000  Level Miami Center
12:22PM 26.1053 -79.0686 303° West 163 188 8,000 -60 Level Miami Center
12:23PM 26.1297 -79.1083 304° West 163 188 7,900 -300 Descending Miami Center
12:24PM 26.1522 -79.1528 299° West 163 188 7,400 -480 Descending Miami Center
12:25PM 26.1767 -79.1950 303° West 168 193 7,000 -480 Descending Miami Center
12:26PM 26.2050 -79.2394 305° West 168 193 6,500 -480 Descending Miami Center
12:27PM 26.2272 -79.2839 299° West 168 193 6,100 -540 Descending Miami Center
12:28PM 26.2517 -79.3286 301° West 163 188 5,500 -600 Descending Miami Center
12:29PM 26.2739 -79.3683 302° West 163 188 5,000 -540 Descending Miami Center
12:30PM 26.2983 -79.4128 302° West 168 193 4,500 -540 Descending Miami Center
12:31PM 26.3225 -79.4550 303° West 166 191 4,000 -300 Descending Miami Center
12:32PM 26.3467 -79.5019 300° West 161 185 4,000  Level Miami Center
12:33PM 26.3711 -79.5397 306° West 161 185 4,000  Level Miami Center
12:34PM 26.3975 -79.5844 303° West 161 185 4,000  Level Miami Center
12:35PM 26.4178 -79.6194 303° West 161 185 4,000 -60 Level Miami Center
12:36PM 26.4397 -79.6664 298° West 161 185 3,900 -300 Descending Miami Center
12:37PM 26.4619 -79.7042 303° West 166 191 3,500 -480 Descending Miami Center
12:38PM 26.4883 -79.7536 301° West 166 191 3,000 -300 Descending Miami Center
12:39PM 26.5083 -79.7911 301° West 166 191 3,000  Level Miami Center
12:41PM 26.5560 -79.8619 299° West  Level FlightAware Approximate
12:48PM 26.6667 -80.0833 North  Level FlightAware Approximate
12:49PM 26.6832 -80.0956 North  Level Estimated
12:50PM 26.6832 -80.0956 North  Level Estimated
12:51PM 26.6832 -80.0956 North  Level Estimated
12:52PM 26.6832 -80.0956 North  Level Estimated
12:53PM 26.6832 -80.0956 North  Level Estimated
12:54PM 26.6832 -80.0956 North  Level Estimated
12:55PM 26.6832 -80.0956 North  Level Estimated
12:56PM 26.6832 -80.0956 North  Level Estimated